sensor_id;sensor_type;location;lat;lon;timestamp;pressure;altitude;pressure_sealevel;temperature
15360;BMP280;7779;49.596;11.070;2023-07-29T00:02:08;97827.16;;;22.47
15360;BMP280;7779;49.596;11.070;2023-07-29T00:04:34;97813.53;;;22.44
15360;BMP280;7779;49.596;11.070;2023-07-29T00:07:00;97816.91;;;22.43
15360;BMP280;7779;49.596;11.070;2023-07-29T00:09:25;97825.44;;;22.40
15360;BMP280;7779;49.596;11.070;2023-07-29T00:11:51;97814.34;;;22.37
15360;BMP280;7779;49.596;11.070;2023-07-29T00:14:17;97810.97;;;22.35
15360;BMP280;7779;49.596;11.070;2023-07-29T00:16:42;97814.34;;;22.30
15360;BMP280;7779;49.596;11.070;2023-07-29T00:19:08;97810.09;;;22.32
15360;BMP280;7779;49.596;11.070;2023-07-29T00:21:34;97797.31;;;22.27
15360;BMP280;7779;49.596;11.070;2023-07-29T00:24:00;97801.56;;;22.27
15360;BMP280;7779;49.596;11.070;2023-07-29T00:26:27;97800.72;;;22.25
15360;BMP280;7779;49.596;11.070;2023-07-29T00:28:55;97794.75;;;22.23
15360;BMP280;7779;49.596;11.070;2023-07-29T00:31:21;97786.25;;;22.21
15360;BMP280;7779;49.596;11.070;2023-07-29T00:33:47;97793.91;;;22.19
15360;BMP280;7779;49.596;11.070;2023-07-29T00:36:14;97793.91;;;22.18
15360;BMP280;7779;49.596;11.070;2023-07-29T00:38:39;97798.97;;;22.16
15360;BMP280;7779;49.596;11.070;2023-07-29T00:41:05;97794.72;;;22.14
15360;BMP280;7779;49.596;11.070;2023-07-29T00:43:31;97797.22;;;22.11
15360;BMP280;7779;49.596;11.070;2023-07-29T00:45:57;97794.69;;;22.11
15360;BMP280;7779;49.596;11.070;2023-07-29T00:48:24;97793.00;;;22.10
15360;BMP280;7779;49.596;11.070;2023-07-29T00:50:51;97793.00;;;22.10
15360;BMP280;7779;49.596;11.070;2023-07-29T00:53:16;97800.63;;;22.08
15360;BMP280;7779;49.596;11.070;2023-07-29T00:55:42;97794.69;;;22.08
15360;BMP280;7779;49.596;11.070;2023-07-29T00:58:09;97793.84;;;22.09
15360;BMP280;7779;49.596;11.070;2023-07-29T01:00:36;97799.78;;;22.11
15360;BMP280;7779;49.596;11.070;2023-07-29T01:03:03;97804.03;;;22.10
15360;BMP280;7779;49.596;11.070;2023-07-29T01:06:29;97797.25;;;22.12
15360;BMP280;7779;49.596;11.070;2023-07-29T01:08:46;97809.19;;;22.15
15360;BMP280;7779;49.596;11.070;2023-07-29T01:14:38;97800.72;;;22.17
15360;BMP280;7779;49.596;11.070;2023-07-29T01:17:13;97799.88;;;22.17
15360;BMP280;7779;49.596;11.070;2023-07-29T01:20:03;97810.06;;;22.17
15360;BMP280;7779;49.596;11.070;2023-07-29T01:22:35;97808.34;;;22.16
15360;BMP280;7779;49.596;11.070;2023-07-29T01:25:02;97815.16;;;22.17
15360;BMP280;7779;49.596;11.070;2023-07-29T01:27:28;97802.38;;;22.18
15360;BMP280;7779;49.596;11.070;2023-07-29T01:29:56;97800.72;;;22.20
15360;BMP280;7779;49.596;11.070;2023-07-29T01:32:37;97803.25;;;22.22
15360;BMP280;7779;49.596;11.070;2023-07-29T01:35:42;97804.97;;;22.23
15360;BMP280;7779;49.596;11.070;2023-07-29T01:38:24;97799.03;;;22.22
15360;BMP280;7779;49.596;11.070;2023-07-29T01:40:55;97810.06;;;22.23
15360;BMP280;7779;49.596;11.070;2023-07-29T01:43:22;97802.41;;;22.23
15360;BMP280;7779;49.596;11.070;2023-07-29T01:45:52;97809.22;;;22.21
15360;BMP280;7779;49.596;11.070;2023-07-29T01:48:18;97802.38;;;22.18
15360;BMP280;7779;49.596;11.070;2023-07-29T01:50:43;97809.19;;;22.15
15360;BMP280;7779;49.596;11.070;2023-07-29T01:53:09;97806.59;;;22.09
15360;BMP280;7779;49.596;11.070;2023-07-29T01:55:35;97812.53;;;22.03
15360;BMP280;7779;49.596;11.070;2023-07-29T01:58:00;97803.16;;;21.98
15360;BMP280;7779;49.596;11.070;2023-07-29T02:00:27;97798.03;;;21.92
15360;BMP280;7779;49.596;11.070;2023-07-29T02:02:52;97801.41;;;21.85
15360;BMP280;7779;49.596;11.070;2023-07-29T02:05:18;97807.31;;;21.78
15360;BMP280;7779;49.596;11.070;2023-07-29T02:07:44;97799.66;;;21.72
15360;BMP280;7779;49.596;11.070;2023-07-29T02:10:10;97788.56;;;21.66
15360;BMP280;7779;49.596;11.070;2023-07-29T02:12:35;97783.44;;;21.60
15360;BMP280;7779;49.596;11.070;2023-07-29T02:15:01;97787.66;;;21.54
15360;BMP280;7779;49.596;11.070;2023-07-29T02:17:27;97793.59;;;21.47
15360;BMP280;7779;49.596;11.070;2023-07-29T02:19:53;97802.91;;;21.42
15360;BMP280;7779;49.596;11.070;2023-07-29T02:22:19;97800.28;;;21.34
15360;BMP280;7779;49.596;11.070;2023-07-29T02:24:45;97798.53;;;21.29
15360;BMP280;7779;49.596;11.070;2023-07-29T02:27:11;97792.56;;;21.24
15360;BMP280;7779;49.596;11.070;2023-07-29T02:29:37;97789.97;;;21.16
15360;BMP280;7779;49.596;11.070;2023-07-29T02:32:03;97788.25;;;21.11
15360;BMP280;7779;49.596;11.070;2023-07-29T02:34:30;97785.66;;;21.05
15360;BMP280;7779;49.596;11.070;2023-07-29T02:36:56;97779.66;;;20.99
15360;BMP280;7779;49.596;11.070;2023-07-29T02:39:22;97779.63;;;20.93
15360;BMP280;7779;49.596;11.070;2023-07-29T02:41:49;97767.69;;;20.86
15360;BMP280;7779;49.596;11.070;2023-07-29T02:44:15;97771.88;;;20.81
15360;BMP280;7779;49.596;11.070;2023-07-29T02:46:41;97763.38;;;20.75
15360;BMP280;7779;49.596;11.070;2023-07-29T02:49:07;97758.25;;;20.72
15360;BMP280;7779;49.596;11.070;2023-07-29T02:51:33;97759.06;;;20.68
15360;BMP280;7779;49.596;11.070;2023-07-29T02:53:58;97759.88;;;20.64
15360;BMP280;7779;49.596;11.070;2023-07-29T02:56:24;97751.34;;;20.60
15360;BMP280;7779;49.596;11.070;2023-07-29T02:58:50;97741.94;;;20.56
15360;BMP280;7779;49.596;11.070;2023-07-29T03:01:18;97742.78;;;20.54
15360;BMP280;7779;49.596;11.070;2023-07-29T03:03:44;97738.50;;;20.48
15360;BMP280;7779;49.596;11.070;2023-07-29T03:06:13;97746.94;;;20.44
15360;BMP280;7779;49.596;11.070;2023-07-29T03:08:39;97737.56;;;20.39
15360;BMP280;7779;49.596;11.070;2023-07-29T03:11:11;97741.81;;;20.38
15360;BMP280;7779;49.596;11.070;2023-07-29T03:13:37;97746.84;;;20.34
15360;BMP280;7779;49.596;11.070;2023-07-29T03:16:09;97746.84;;;20.33
15360;BMP280;7779;49.596;11.070;2023-07-29T03:18:36;97764.63;;;20.31
15360;BMP280;7779;49.596;11.070;2023-07-29T03:21:03;97775.63;;;20.29
15360;BMP280;7779;49.596;11.070;2023-07-29T03:23:31;97777.34;;;20.28
15360;BMP280;7779;49.596;11.070;2023-07-29T03:25:58;97784.09;;;20.26
15360;BMP280;7779;49.596;11.070;2023-07-29T03:28:29;97799.34;;;20.25
15360;BMP280;7779;49.596;11.070;2023-07-29T03:30:56;97795.09;;;20.22
15360;BMP280;7779;49.596;11.070;2023-07-29T03:33:22;97779.78;;;20.19
15360;BMP280;7779;49.596;11.070;2023-07-29T03:35:48;97786.53;;;20.17
15360;BMP280;7779;49.596;11.070;2023-07-29T03:38:14;97778.06;;;20.15
15360;BMP280;7779;49.596;11.070;2023-07-29T03:40:41;97770.41;;;20.14
15360;BMP280;7779;49.596;11.070;2023-07-29T03:43:08;97769.56;;;20.13
15360;BMP280;7779;49.596;11.070;2023-07-29T03:45:35;97769.56;;;20.13
15360;BMP280;7779;49.596;11.070;2023-07-29T03:48:02;97774.66;;;20.13
15360;BMP280;7779;49.596;11.070;2023-07-29T03:50:29;97768.69;;;20.14
15360;BMP280;7779;49.596;11.070;2023-07-29T03:52:56;97766.13;;;20.11
15360;BMP280;7779;49.596;11.070;2023-07-29T03:55:22;97755.97;;;20.10
15360;BMP280;7779;49.596;11.070;2023-07-29T03:57:48;97764.44;;;20.12
15360;BMP280;7779;49.596;11.070;2023-07-29T04:00:14;97750.84;;;20.08
15360;BMP280;7779;49.596;11.070;2023-07-29T04:02:42;97754.22;;;20.09
15360;BMP280;7779;49.596;11.070;2023-07-29T04:05:10;97745.75;;;20.08
15360;BMP280;7779;49.596;11.070;2023-07-29T04:07:36;97737.28;;;20.09
15360;BMP280;7779;49.596;11.070;2023-07-29T04:10:03;97748.34;;;20.13
15360;BMP280;7779;49.596;11.070;2023-07-29T04:12:30;97742.44;;;20.15
15360;BMP280;7779;49.596;11.070;2023-07-29T04:14:56;97740.78;;;20.19
15360;BMP280;7779;49.596;11.070;2023-07-29T04:17:22;97742.53;;;20.24
15360;BMP280;7779;49.596;11.070;2023-07-29T04:19:48;97738.34;;;20.28
15360;BMP280;7779;49.596;11.070;2023-07-29T04:22:15;97743.44;;;20.32
15360;BMP280;7779;49.596;11.070;2023-07-29T04:24:41;97743.50;;;20.38
15360;BMP280;7779;49.596;11.070;2023-07-29T04:27:07;97736.75;;;20.43
15360;BMP280;7779;49.596;11.070;2023-07-29T04:29:33;97736.00;;;20.56
15360;BMP280;7779;49.596;11.070;2023-07-29T04:32:04;97738.69;;;20.66
15360;BMP280;7779;49.596;11.070;2023-07-29T04:34:30;97735.34;;;20.76
15360;BMP280;7779;49.596;11.070;2023-07-29T04:36:56;97738.81;;;20.87
15360;BMP280;7779;49.596;11.070;2023-07-29T04:39:22;97734.66;;;20.96
15360;BMP280;7779;49.596;11.070;2023-07-29T04:41:48;97750.03;;;21.11
15360;BMP280;7779;49.596;11.070;2023-07-29T04:44:14;97743.31;;;21.28
15360;BMP280;7779;49.596;11.070;2023-07-29T04:46:40;97734.94;;;21.48
15360;BMP280;7779;49.596;11.070;2023-07-29T04:49:06;97720.63;;;21.66
15360;BMP280;7779;49.596;11.070;2023-07-29T04:51:32;97718.94;;;21.88
15360;BMP280;7779;49.596;11.070;2023-07-29T04:53:58;97725.81;;;22.06
15360;BMP280;7779;49.596;11.070;2023-07-29T04:56:25;97720.75;;;22.29
15360;BMP280;7779;49.596;11.070;2023-07-29T04:58:51;97708.88;;;22.50
15360;BMP280;7779;49.596;11.070;2023-07-29T05:01:16;97721.63;;;22.66
15360;BMP280;7779;49.596;11.070;2023-07-29T05:03:42;97713.09;;;22.79
15360;BMP280;7779;49.596;11.070;2023-07-29T05:06:08;97710.53;;;22.88
15360;BMP280;7779;49.596;11.070;2023-07-29T05:08:34;97704.59;;;22.92
15360;BMP280;7779;49.596;11.070;2023-07-29T05:11:00;97701.19;;;22.99
15360;BMP280;7779;49.596;11.070;2023-07-29T05:13:26;97691.81;;;23.02
15360;BMP280;7779;49.596;11.070;2023-07-29T05:15:52;97695.22;;;23.03
15360;BMP280;7779;49.596;11.070;2023-07-29T05:18:18;97699.47;;;23.07
15360;BMP280;7779;49.596;11.070;2023-07-29T05:20:44;97695.22;;;23.09
15360;BMP280;7779;49.596;11.070;2023-07-29T05:23:10;97689.22;;;23.10
15360;BMP280;7779;49.596;11.070;2023-07-29T05:25:35;97688.38;;;23.13
15360;BMP280;7779;49.596;11.070;2023-07-29T05:28:02;97690.91;;;23.16
15360;BMP280;7779;49.596;11.070;2023-07-29T05:30:29;97694.31;;;23.17
15360;BMP280;7779;49.596;11.070;2023-07-29T05:33:00;97699.44;;;23.18
15360;BMP280;7779;49.596;11.070;2023-07-29T05:35:26;97699.44;;;23.18
15360;BMP280;7779;49.596;11.070;2023-07-29T05:37:52;97701.16;;;23.19
15360;BMP280;7779;49.596;11.070;2023-07-29T05:40:18;97702.81;;;23.20
15360;BMP280;7779;49.596;11.070;2023-07-29T05:42:44;97703.69;;;23.18
15360;BMP280;7779;49.596;11.070;2023-07-29T05:45:11;97702.84;;;23.17
15360;BMP280;7779;49.596;11.070;2023-07-29T05:47:37;97698.59;;;23.18
15360;BMP280;7779;49.596;11.070;2023-07-29T05:50:04;97698.59;;;23.21
15360;BMP280;7779;49.596;11.070;2023-07-29T05:52:31;97707.06;;;23.27
15360;BMP280;7779;49.596;11.070;2023-07-29T05:54:57;97701.09;;;23.31
15360;BMP280;7779;49.596;11.070;2023-07-29T05:57:22;97700.22;;;23.40
15360;BMP280;7779;49.596;11.070;2023-07-29T05:59:48;97705.28;;;23.47
15360;BMP280;7779;49.596;11.070;2023-07-29T06:02:14;97712.09;;;23.52
15360;BMP280;7779;49.596;11.070;2023-07-29T06:04:40;97707.81;;;23.56
15360;BMP280;7779;49.596;11.070;2023-07-29T06:07:07;97711.25;;;23.62
15360;BMP280;7779;49.596;11.070;2023-07-29T06:09:33;97709.53;;;23.63
15360;BMP280;7779;49.596;11.070;2023-07-29T06:11:59;97704.38;;;23.66
15360;BMP280;7779;49.596;11.070;2023-07-29T06:14:25;97697.59;;;23.66
15360;BMP280;7779;49.596;11.070;2023-07-29T06:16:52;97707.81;;;23.65
15360;BMP280;7779;49.596;11.070;2023-07-29T06:19:19;97713.78;;;23.64
15360;BMP280;7779;49.596;11.070;2023-07-29T06:21:46;97719.75;;;23.63
15360;BMP280;7779;49.596;11.070;2023-07-29T06:24:12;97708.69;;;23.59
15360;BMP280;7779;49.596;11.070;2023-07-29T06:26:37;97712.09;;;23.55
15360;BMP280;7779;49.596;11.070;2023-07-29T06:29:03;97718.03;;;23.53
15360;BMP280;7779;49.596;11.070;2023-07-29T06:31:29;97712.97;;;23.50
15360;BMP280;7779;49.596;11.070;2023-07-29T06:33:56;97707.84;;;23.49
15360;BMP280;7779;49.596;11.070;2023-07-29T06:36:21;97698.47;;;23.49
15360;BMP280;7779;49.596;11.070;2023-07-29T06:38:47;97692.50;;;23.52
15360;BMP280;7779;49.596;11.070;2023-07-29T06:41:13;97692.47;;;23.53
15360;BMP280;7779;49.596;11.070;2023-07-29T06:43:39;97696.75;;;23.57
15360;BMP280;7779;49.596;11.070;2023-07-29T06:46:05;97722.31;;;23.61
15360;BMP280;7779;49.596;11.070;2023-07-29T06:48:31;97733.38;;;23.62
15360;BMP280;7779;49.596;11.070;2023-07-29T06:50:56;97756.44;;;23.59
15360;BMP280;7779;49.596;11.070;2023-07-29T06:53:26;97737.66;;;23.50
15360;BMP280;7779;49.596;11.070;2023-07-29T06:55:52;97727.47;;;23.41
15360;BMP280;7779;49.596;11.070;2023-07-29T06:58:19;97724.09;;;23.31
15360;BMP280;7779;49.596;11.070;2023-07-29T07:00:44;97725.84;;;23.23
15360;BMP280;7779;49.596;11.070;2023-07-29T07:03:10;97718.19;;;23.14
15360;BMP280;7779;49.596;11.070;2023-07-29T07:05:36;97713.09;;;23.06
15360;BMP280;7779;49.596;11.070;2023-07-29T07:08:02;97708.00;;;22.97
15360;BMP280;7779;49.596;11.070;2023-07-29T07:10:27;97717.41;;;22.89
15360;BMP280;7779;49.596;11.070;2023-07-29T07:12:53;97731.00;;;22.83
15360;BMP280;7779;49.596;11.070;2023-07-29T07:15:19;97725.88;;;22.80
15360;BMP280;7779;49.596;11.070;2023-07-29T07:17:44;97737.78;;;22.77
15360;BMP280;7779;49.596;11.070;2023-07-29T07:20:11;97725.00;;;22.74
15360;BMP280;7779;49.596;11.070;2023-07-29T07:22:37;97719.94;;;22.71
15360;BMP280;7779;49.596;11.070;2023-07-29T07:25:03;97706.31;;;22.69
15360;BMP280;7779;49.596;11.070;2023-07-29T07:27:29;97700.38;;;22.67
15360;BMP280;7779;49.596;11.070;2023-07-29T07:29:54;97711.44;;;22.69
15360;BMP280;7779;49.596;11.070;2023-07-29T07:32:20;97714.81;;;22.71
15360;BMP280;7779;49.596;11.070;2023-07-29T07:34:46;97732.69;;;22.75
15360;BMP280;7779;49.596;11.070;2023-07-29T07:37:11;97730.13;;;22.80
15360;BMP280;7779;49.596;11.070;2023-07-29T07:39:37;97713.09;;;22.86
15360;BMP280;7779;49.596;11.070;2023-07-29T07:42:04;97706.31;;;22.96
15360;BMP280;7779;49.596;11.070;2023-07-29T07:44:30;97703.72;;;23.06
15360;BMP280;7779;49.596;11.070;2023-07-29T07:46:55;97702.00;;;23.15
15360;BMP280;7779;49.596;11.070;2023-07-29T07:49:22;97704.50;;;23.24
15360;BMP280;7779;49.596;11.070;2023-07-29T07:51:48;97701.09;;;23.34
15360;BMP280;7779;49.596;11.070;2023-07-29T07:54:13;97701.91;;;23.44
15360;BMP280;7779;49.596;11.070;2023-07-29T07:56:39;97698.47;;;23.52
15360;BMP280;7779;49.596;11.070;2023-07-29T07:59:05;97686.50;;;23.61
15360;BMP280;7779;49.596;11.070;2023-07-29T08:01:38;97676.25;;;23.70
15360;BMP280;7779;49.596;11.070;2023-07-29T08:04:05;97670.25;;;23.73
15360;BMP280;7779;49.596;11.070;2023-07-29T08:06:32;97665.13;;;23.76
15360;BMP280;7779;49.596;11.070;2023-07-29T08:08:58;97667.69;;;23.77
15360;BMP280;7779;49.596;11.070;2023-07-29T08:11:25;97676.19;;;23.78
15360;BMP280;7779;49.596;11.070;2023-07-29T08:13:51;97683.03;;;23.79
15360;BMP280;7779;49.596;11.070;2023-07-29T08:16:16;97673.63;;;23.81
15360;BMP280;7779;49.596;11.070;2023-07-29T08:18:42;97689.81;;;23.84
15360;BMP280;7779;49.596;11.070;2023-07-29T08:21:08;97686.38;;;23.88
15360;BMP280;7779;49.596;11.070;2023-07-29T08:23:35;97673.53;;;23.92
15360;BMP280;7779;49.596;11.070;2023-07-29T08:26:05;97661.56;;;23.97
15360;BMP280;7779;49.596;11.070;2023-07-29T08:28:35;97682.88;;;23.98
15360;BMP280;7779;49.596;11.070;2023-07-29T08:31:01;97693.94;;;24.01
15360;BMP280;7779;49.596;11.070;2023-07-29T08:33:27;97676.88;;;24.03
15360;BMP280;7779;49.596;11.070;2023-07-29T08:35:54;97675.16;;;24.05
15360;BMP280;7779;49.596;11.070;2023-07-29T08:38:20;97675.16;;;24.08
15360;BMP280;7779;49.596;11.070;2023-07-29T08:41:03;97670.03;;;24.11
15360;BMP280;7779;49.596;11.070;2023-07-29T08:43:32;97677.69;;;24.13
15360;BMP280;7779;49.596;11.070;2023-07-29T08:45:59;97694.72;;;24.14
15360;BMP280;7779;49.596;11.070;2023-07-29T08:48:40;97710.09;;;24.14
15360;BMP280;7779;49.596;11.070;2023-07-29T08:51:09;97695.56;;;24.14
15360;BMP280;7779;49.596;11.070;2023-07-29T08:53:36;97706.63;;;24.16
15360;BMP280;7779;49.596;11.070;2023-07-29T08:56:03;97721.16;;;24.20
15360;BMP280;7779;49.596;11.070;2023-07-29T08:58:29;97721.97;;;24.24
15360;BMP280;7779;49.596;11.070;2023-07-29T09:00:55;97721.09;;;24.26
15360;BMP280;7779;49.596;11.070;2023-07-29T09:03:21;97710.88;;;24.29
15360;BMP280;7779;49.596;11.070;2023-07-29T09:05:48;97710.00;;;24.34
15360;BMP280;7779;49.596;11.070;2023-07-29T09:08:14;97703.13;;;24.36
15360;BMP280;7779;49.596;11.070;2023-07-29T09:10:40;97700.53;;;24.39
15360;BMP280;7779;49.596;11.070;2023-07-29T09:13:07;97691.13;;;24.43
15360;BMP280;7779;49.596;11.070;2023-07-29T09:15:35;97700.47;;;24.50
15360;BMP280;7779;49.596;11.070;2023-07-29T09:18:15;97702.13;;;24.57
15360;BMP280;7779;49.596;11.070;2023-07-29T09:20:41;97705.50;;;24.62
15360;BMP280;7779;49.596;11.070;2023-07-29T09:23:10;97711.41;;;24.67
15360;BMP280;7779;49.596;11.070;2023-07-29T09:25:36;97725.91;;;24.71
15360;BMP280;7779;49.596;11.070;2023-07-29T09:28:10;97722.47;;;24.72
15360;BMP280;7779;49.596;11.070;2023-07-29T09:30:39;97731.03;;;24.68
15360;BMP280;7779;49.596;11.070;2023-07-29T09:33:05;97731.94;;;24.61
15360;BMP280;7779;49.596;11.070;2023-07-29T09:35:34;97729.47;;;24.52
15360;BMP280;7779;49.596;11.070;2023-07-29T09:38:01;97723.56;;;24.44
15360;BMP280;7779;49.596;11.070;2023-07-29T09:40:34;97727.03;;;24.35
15360;BMP280;7779;49.596;11.070;2023-07-29T09:42:59;97731.38;;;24.29
15360;BMP280;7779;49.596;11.070;2023-07-29T09:45:27;97733.06;;;24.24
15360;BMP280;7779;49.596;11.070;2023-07-29T09:47:54;97733.06;;;24.24
15360;BMP280;7779;49.596;11.070;2023-07-29T09:50:29;97732.19;;;24.28
15360;BMP280;7779;49.596;11.070;2023-07-29T09:52:56;97721.06;;;24.38
15360;BMP280;7779;49.596;11.070;2023-07-29T09:55:24;97731.13;;;24.56
15360;BMP280;7779;49.596;11.070;2023-07-29T09:58:01;97719.00;;;24.78
15360;BMP280;7779;49.596;11.070;2023-07-29T10:00:31;97711.06;;;25.07
15360;BMP280;7779;49.596;11.070;2023-07-29T10:03:00;97708.19;;;25.35
15360;BMP280;7779;49.596;11.070;2023-07-29T10:05:27;97713.88;;;25.62
15360;BMP280;7779;49.596;11.070;2023-07-29T10:07:55;97710.13;;;25.88
15360;BMP280;7779;49.596;11.070;2023-07-29T10:10:21;97698.72;;;26.07
15360;BMP280;7779;49.596;11.070;2023-07-29T10:12:47;97706.19;;;26.23
15360;BMP280;7779;49.596;11.070;2023-07-29T10:15:13;97705.03;;;26.45
15360;BMP280;7779;49.596;11.070;2023-07-29T10:17:40;97703.81;;;26.67
15360;BMP280;7779;49.596;11.070;2023-07-29T10:20:09;97690.47;;;26.95
15360;BMP280;7779;49.596;11.070;2023-07-29T10:22:42;97699.28;;;27.28
15360;BMP280;7779;49.596;11.070;2023-07-29T10:30:15;97672.88;;;28.01
15360;BMP280;7779;49.596;11.070;2023-07-29T10:32:46;97668.38;;;28.12
15360;BMP280;7779;49.596;11.070;2023-07-29T10:35:14;97669.06;;;28.17
15360;BMP280;7779;49.596;11.070;2023-07-29T10:37:42;97669.88;;;28.19
15360;BMP280;7779;49.596;11.070;2023-07-29T10:40:10;97671.63;;;28.19
15360;BMP280;7779;49.596;11.070;2023-07-29T10:43:09;97668.28;;;28.15
15360;BMP280;7779;49.596;11.070;2023-07-29T10:45:40;97661.50;;;28.11
15360;BMP280;7779;49.596;11.070;2023-07-29T10:48:11;97667.47;;;28.13
15360;BMP280;7779;49.596;11.070;2023-07-29T10:50:38;97667.41;;;28.16
15360;BMP280;7779;49.596;11.070;2023-07-29T10:53:04;97675.16;;;28.15
15360;BMP280;7779;49.596;11.070;2023-07-29T10:55:35;97673.56;;;28.09
15360;BMP280;7779;49.596;11.070;2023-07-29T10:58:14;97673.63;;;28.06
15360;BMP280;7779;49.596;11.070;2023-07-29T11:00:44;97672.81;;;28.04
15360;BMP280;7779;49.596;11.070;2023-07-29T11:03:12;97665.16;;;28.01
15360;BMP280;7779;49.596;11.070;2023-07-29T11:05:53;97660.13;;;27.94
15360;BMP280;7779;49.596;11.070;2023-07-29T11:08:31;97668.94;;;27.86
15360;BMP280;7779;49.596;11.070;2023-07-29T11:11:08;97653.59;;;27.80
15360;BMP280;7779;49.596;11.070;2023-07-29T11:13:38;97667.44;;;27.74
15360;BMP280;7779;49.596;11.070;2023-07-29T11:16:05;97659.03;;;27.68
15360;BMP280;7779;49.596;11.070;2023-07-29T11:18:33;97660.88;;;27.61
15360;BMP280;7779;49.596;11.070;2023-07-29T11:21:01;97660.16;;;27.56
15360;BMP280;7779;49.596;11.070;2023-07-29T11:23:37;97668.88;;;27.50
15360;BMP280;7779;49.596;11.070;2023-07-29T11:26:04;97670.72;;;27.40
15360;BMP280;7779;49.596;11.070;2023-07-29T11:28:30;97670.97;;;27.28
15360;BMP280;7779;49.596;11.070;2023-07-29T11:30:57;97667.72;;;27.20
15360;BMP280;7779;49.596;11.070;2023-07-29T11:33:25;97677.25;;;27.14
15360;BMP280;7779;49.596;11.070;2023-07-29T11:35:54;97679.06;;;27.09
15360;BMP280;7779;49.596;11.070;2023-07-29T11:38:22;97668.91;;;27.02
15360;BMP280;7779;49.596;11.070;2023-07-29T11:41:00;97678.44;;;26.97
15360;BMP280;7779;49.596;11.070;2023-07-29T11:43:26;97674.22;;;26.93
15360;BMP280;7779;49.596;11.070;2023-07-29T11:45:53;97675.97;;;26.92
15360;BMP280;7779;49.596;11.070;2023-07-29T11:48:31;97675.94;;;26.94
15360;BMP280;7779;49.596;11.070;2023-07-29T11:50:57;97671.63;;;26.94
15360;BMP280;7779;49.596;11.070;2023-07-29T11:53:28;97675.13;;;26.92
15360;BMP280;7779;49.596;11.070;2023-07-29T11:55:54;97674.31;;;26.90
15360;BMP280;7779;49.596;11.070;2023-07-29T11:58:20;97666.63;;;26.88
15360;BMP280;7779;49.596;11.070;2023-07-29T12:00:47;97662.34;;;26.86
15360;BMP280;7779;49.596;11.070;2023-07-29T12:03:13;97660.69;;;26.83
15360;BMP280;7779;49.596;11.070;2023-07-29T12:05:40;97647.00;;;26.81
15360;BMP280;7779;49.596;11.070;2023-07-29T12:08:08;97632.47;;;26.79
15360;BMP280;7779;49.596;11.070;2023-07-29T12:10:34;97641.88;;;26.80
15360;BMP280;7779;49.596;11.070;2023-07-29T12:13:02;97644.44;;;26.83
15360;BMP280;7779;49.596;11.070;2023-07-29T12:15:29;97646.06;;;26.87
15360;BMP280;7779;49.596;11.070;2023-07-29T12:17:56;97644.31;;;26.89
15360;BMP280;7779;49.596;11.070;2023-07-29T12:20:24;97647.72;;;26.91
15360;BMP280;7779;49.596;11.070;2023-07-29T12:22:55;97648.53;;;26.93
15360;BMP280;7779;49.596;11.070;2023-07-29T12:25:21;97643.38;;;26.94
15360;BMP280;7779;49.596;11.070;2023-07-29T12:27:47;97643.25;;;26.99
15360;BMP280;7779;49.596;11.070;2023-07-29T12:30:13;97634.50;;;27.09
15360;BMP280;7779;49.596;11.070;2023-07-29T12:32:46;97636.78;;;27.23
15360;BMP280;7779;49.596;11.070;2023-07-29T12:35:13;97619.41;;;27.34
15360;BMP280;7779;49.596;11.070;2023-07-29T12:37:39;97620.88;;;27.47
15360;BMP280;7779;49.596;11.070;2023-07-29T12:40:28;97623.16;;;27.62
15360;BMP280;7779;49.596;11.070;2023-07-29T12:42:54;97610.88;;;27.73
15360;BMP280;7779;49.596;11.070;2023-07-29T12:45:20;97616.50;;;27.90
15360;BMP280;7779;49.596;11.070;2023-07-29T12:47:48;97611.97;;;27.99
15360;BMP280;7779;49.596;11.070;2023-07-29T12:50:14;97608.38;;;28.07
15360;BMP280;7779;49.596;11.070;2023-07-29T12:52:39;97609.94;;;28.14
15360;BMP280;7779;49.596;11.070;2023-07-29T12:55:06;97601.88;;;28.26
15360;BMP280;7779;49.596;11.070;2023-07-29T12:57:35;97604.38;;;28.31
15360;BMP280;7779;49.596;11.070;2023-07-29T13:00:02;97597.41;;;28.34
15360;BMP280;7779;49.596;11.070;2023-07-29T13:02:27;97586.22;;;28.35
15360;BMP280;7779;49.596;11.070;2023-07-29T13:04:53;97583.53;;;28.39
15360;BMP280;7779;49.596;11.070;2023-07-29T13:07:19;97581.63;;;28.46
15360;BMP280;7779;49.596;11.070;2023-07-29T13:09:44;97582.38;;;28.51
15360;BMP280;7779;49.596;11.070;2023-07-29T13:12:10;97577.94;;;28.56
15360;BMP280;7779;49.596;11.070;2023-07-29T13:14:36;97576.81;;;28.67
15360;BMP280;7779;49.596;11.070;2023-07-29T13:17:01;97573.16;;;28.75
15360;BMP280;7779;49.596;11.070;2023-07-29T13:19:27;97566.13;;;28.80
15360;BMP280;7779;49.596;11.070;2023-07-29T13:21:53;97577.25;;;28.82
15360;BMP280;7779;49.596;11.070;2023-07-29T13:24:18;97583.31;;;28.80
15360;BMP280;7779;49.596;11.070;2023-07-29T13:26:44;97582.56;;;28.76
15360;BMP280;7779;49.596;11.070;2023-07-29T13:29:10;97576.59;;;28.74
15360;BMP280;7779;49.596;11.070;2023-07-29T13:31:35;97568.91;;;28.73
15360;BMP280;7779;49.596;11.070;2023-07-29T13:34:01;97564.50;;;28.76
15360;BMP280;7779;49.596;11.070;2023-07-29T13:36:27;97567.84;;;28.80
15360;BMP280;7779;49.596;11.070;2023-07-29T13:38:53;97559.03;;;28.88
15360;BMP280;7779;49.596;11.070;2023-07-29T13:41:18;97562.34;;;28.93
15360;BMP280;7779;49.596;11.070;2023-07-29T13:43:44;97567.31;;;28.99
15360;BMP280;7779;49.596;11.070;2023-07-29T13:46:09;97568.81;;;29.08
15360;BMP280;7779;49.596;11.070;2023-07-29T13:48:35;97564.25;;;29.15
15360;BMP280;7779;49.596;11.070;2023-07-29T13:51:01;97550.34;;;29.22
15360;BMP280;7779;49.596;11.070;2023-07-29T13:53:27;97558.59;;;29.33
15360;BMP280;7779;49.596;11.070;2023-07-29T13:55:52;97570.25;;;29.46
15360;BMP280;7779;49.596;11.070;2023-07-29T13:58:18;97567.25;;;29.59
15360;BMP280;7779;49.596;11.070;2023-07-29T14:00:44;97566.16;;;29.66
15360;BMP280;7779;49.596;11.070;2023-07-29T14:03:09;97560.13;;;29.67
15360;BMP280;7779;49.596;11.070;2023-07-29T14:05:35;97577.28;;;29.68
15360;BMP280;7779;49.596;11.070;2023-07-29T14:08:01;97576.50;;;29.66
15360;BMP280;7779;49.596;11.070;2023-07-29T14:10:27;97569.75;;;29.62
15360;BMP280;7779;49.596;11.070;2023-07-29T14:12:52;97563.00;;;29.58
15360;BMP280;7779;49.596;11.070;2023-07-29T14:15:18;97573.41;;;29.55
15360;BMP280;7779;49.596;11.070;2023-07-29T14:17:44;97560.56;;;29.52
15360;BMP280;7779;49.596;11.070;2023-07-29T14:20:10;97555.53;;;29.50